tititudorancea.com
Station Historical Data
Daily Summary for June 1, 2018 Units:  Metric    English   Both
« Previous Day
Next Day »
Daily Weekly Monthly Yearly Custom
  High: Low: Average:
Temperature: -17.8 °C -0.1 °C 7.1 °C
Dew Point: -17.8 °C -0.9 °C 3 °C
Humidity: Humidity % 41 % 78 %
Wind Speed: 0 km/h 0 km/h 2.9 km/h
Wind Gust: 0 km/h - -
Wind:- - SSW
Pressure: 0 hPa 1027.3 hPa -
Precipitation: 0.25 mm    
Historical Graphs
 
 
Ararat weather Find more about Weather in Ararat, AU


 



 


Tabular Data for June 1, 2018
Time Temperature Dew Point Pressure Wind Wind Speed Wind Gust Humidity Rainfall Rate (Hourly)
-17.8 °C -17.8 °C 0 hPa Calm     Humidity % 0 mm
00:04 3.6 °C 2.6 °C 1030.4 hPa South 3.7 km/h 2.4 km/h 93 % 0 mm
00:09 3.6 °C 2.6 °C 1030.4 hPa South 1.9 km/h   93 % 0 mm
00:14 3.7 °C 2.7 °C 1030.4 hPa South 3.7 km/h 2.3 km/h 93 % 0 mm
00:19 3.7 °C 2.7 °C 1030.4 hPa North 3.7 km/h 2.9 km/h 93 % 0 mm
00:24 3.6 °C 2.6 °C 1030.4 hPa South 3.7 km/h 1.9 km/h 93 % 0 mm
00:29 3.8 °C 2.9 °C 1030 hPa South 3.7 km/h 0.8 km/h 94 % 0 mm
00:34 3.9 °C 3 °C 1030 hPa Calm     94 % 0 mm
00:39 3.7 °C 2.7 °C 1030 hPa Calm     93 % 0 mm
00:44 3.6 °C 2.6 °C 1030 hPa Calm     93 % 0 mm
00:49 3.5 °C 2.6 °C 1030 hPa Calm     94 % 0 mm
00:54 3.6 °C 2.7 °C 1030 hPa Calm     94 % 0 mm
00:59 3.7 °C 2.8 °C 1029.7 hPa Calm     94 % 0 mm
01:04 3.7 °C 2.8 °C 1029.7 hPa Calm     94 % 0 mm
01:09 3.7 °C 2.7 °C 1029.7 hPa South 5.6 km/h 3.4 km/h 93 % 0 mm
01:14 3.7 °C 2.8 °C 1029.7 hPa South 5.6 km/h 3.1 km/h 94 % 0 mm
01:19 3.8 °C 2.9 °C 1029.7 hPa North 5.6 km/h 5.1 km/h 94 % 0 mm
01:24 3.7 °C 2.8 °C 1029.7 hPa South 3.7 km/h 0.3 km/h 94 % 0 mm
01:29 3.6 °C 2.6 °C 1029.7 hPa South 5.6 km/h 3.7 km/h 93 % 0 mm
01:34 3.6 °C 2.7 °C 1029.7 hPa South 3.7 km/h 2.4 km/h 94 % 0 mm
01:39 3.6 °C 2.7 °C 1029.7 hPa South 5.6 km/h 3.1 km/h 94 % 0 mm
01:44 3.6 °C 2.7 °C 1029.7 hPa South 1.6 km/h 0.6 km/h 94 % 0 mm
01:49 3.6 °C 2.7 °C 1029.7 hPa South 3.7 km/h   94 % 0 mm
01:54 3.6 °C 2.7 °C 1029.7 hPa South 1.6 km/h 1.3 km/h 94 % 0 mm
01:59 3.6 °C 2.7 °C 1029.7 hPa Calm     94 % 0 mm
02:04 3.5 °C 2.6 °C 1029.7 hPa Calm     94 % 0 mm
02:09 3.4 °C 2.5 °C 1030 hPa Calm     94 % 0 mm
02:14 3.3 °C 2.3 °C 1029.7 hPa South 3.7 km/h 2.4 km/h 93 % 0 mm
02:19 3.2 °C 2.3 °C 1029.7 hPa South 3.7 km/h 1.8 km/h 94 % 0 mm
02:24 3.1 °C 2.2 °C 1030 hPa Calm     94 % 0 mm
02:29 3.1 °C 2.2 °C 1029.7 hPa Calm     94 % 0 mm
02:34 3.1 °C 2.2 °C 1029.7 hPa South 3.7 km/h 0.6 km/h 94 % 0 mm
02:39 3.1 °C 2.2 °C 1029.7 hPa Calm     94 % 0 mm
02:44 3.1 °C 2.2 °C 1029.7 hPa Calm     94 % 0 mm
02:49 3.1 °C 2.2 °C 1029.7 hPa Calm     94 % 0 mm
02:54 3 °C 2.1 °C 1029.7 hPa Calm     94 % 0 mm
02:59 2.9 °C 2 °C 1029.7 hPa Calm     94 % 0 mm
03:04 2.8 °C 1.9 °C 1029.7 hPa South 1.6 km/h 1 km/h 94 % 0 mm
03:09 2.7 °C 1.7 °C 1029.7 hPa South 6.4 km/h 2.3 km/h 93 % 0 mm
03:14 2.4 °C 1.4 °C 1029.7 hPa South 5.6 km/h 4.3 km/h 93 % 0 mm
03:19 2.2 °C 1.2 °C 1029.7 hPa South 3.2 km/h 0.6 km/h 93 % 0.25 mm
03:24 2 °C 1 °C 1029.7 hPa South 6.4 km/h 2.1 km/h 93 % 0.25 mm
03:29 1.8 °C 0.8 °C 1029.3 hPa Calm     93 % 0.25 mm
03:34 1.6 °C 0.6 °C 1029.3 hPa Calm     93 % 0.25 mm
03:39 1.4 °C 0.6 °C 1029.7 hPa South 3.7 km/h 0.5 km/h 94 % 0.25 mm
03:44 1.3 °C 0.5 °C 1029.3 hPa Calm     94 % 0.25 mm
03:49 1.3 °C 0.4 °C 1029.7 hPa Calm     94 % 0.25 mm
03:54 1.2 °C 0.4 °C 1029.3 hPa Calm     94 % 0.25 mm
03:59 1.2 °C 0.3 °C 1029.3 hPa Calm     94 % 0.25 mm
04:04 1.1 °C 0.3 °C 1029.3 hPa Calm     94 % 0.25 mm
04:09 0.9 °C 0.1 °C 1029.3 hPa Calm     94 % 0.25 mm
04:14 0.9 °C 0.1 °C 1029.3 hPa Calm     94 % 0.25 mm
04:19 0.9 °C 0.1 °C 1029.3 hPa Calm     94 % 0 mm
04:24 0.9 °C 0.1 °C 1029.3 hPa Calm     94 % 0 mm
04:29 0.9 °C 0.1 °C 1029.3 hPa Calm     94 % 0 mm
04:34 0.9 °C 0.1 °C 1029.3 hPa Calm     94 % 0 mm
04:39 0.8 °C 0 °C 1029.7 hPa Calm     94 % 0 mm
04:44 0.8 °C -0.1 °C 1029.7 hPa Calm     94 % 0 mm
04:49 0.8 °C -0.1 °C 1029.7 hPa Calm     94 % 0 mm
04:54 0.7 °C -0.1 °C 1029.3 hPa Calm     94 % 0 mm
04:59 0.8 °C 0.1 °C 1029.7 hPa Calm     95 % 0 mm
05:04 0.9 °C 0.2 °C 1029.3 hPa Calm     95 % 0 mm
05:09 1 °C 0.3 °C 1029.3 hPa South 3.7 km/h 1 km/h 95 % 0 mm
05:14 1.2 °C 0.4 °C 1029.3 hPa Calm     95 % 0 mm
05:19 1.2 °C 0.5 °C 1029.3 hPa Calm     95 % 0 mm
05:24 1.2 °C 0.5 °C 1029.7 hPa South 6.4 km/h 3.7 km/h 95 % 0 mm
05:29 1.4 °C 0.7 °C 1029.7 hPa South 1.9 km/h 0.3 km/h 95 % 0 mm
05:34 1.4 °C 0.7 °C 1029.3 hPa Calm     95 % 0 mm
05:39 1.4 °C 0.6 °C 1029.3 hPa Calm     94 % 0 mm
05:44 1.3 °C 0.4 °C 1029.3 hPa Calm     94 % 0 mm
05:49 1.2 °C 0.4 °C 1029.3 hPa South 6.4 km/h 2.9 km/h 94 % 0 mm
05:54 1 °C 0.2 °C 1029.7 hPa Calm     94 % 0 mm
05:59 0.8 °C 0 °C 1029.3 hPa South 1.9 km/h   94 % 0 mm
06:04 0.7 °C -0.2 °C 1029.7 hPa South 3.7 km/h   94 % 0 mm
06:09 0.6 °C -0.3 °C 1029.7 hPa Calm     94 % 0 mm
06:14 0.4 °C -0.4 °C 1029.7 hPa Calm     94 % 0 mm
06:19 0.4 °C -0.4 °C 1029.7 hPa SSE 1.9 km/h 0.3 km/h 94 % 0 mm
06:24 0.3 °C -0.6 °C 1029.7 hPa Calm     94 % 0 mm
06:29 0.2 °C -0.6 °C 1029.7 hPa Calm     94 % 0 mm
06:34 0.1 °C -0.7 °C 1029.7 hPa Calm     94 % 0 mm
06:39 0.1 °C -0.8 °C 1029.7 hPa Calm     94 % 0 mm
06:44 -0.1 °C -0.9 °C 1029.7 hPa Calm     94 % 0 mm
06:49 -0.1 °C -0.9 °C 1029.7 hPa South 3.7 km/h 3.2 km/h 94 % 0 mm
06:54 -0.1 °C -0.8 °C 1029.7 hPa South 3.7 km/h 1.6 km/h 95 % 0 mm
06:59 -0.1 °C -0.8 °C 1029.7 hPa South 3.7 km/h 1.4 km/h 95 % 0 mm
07:04 0 °C -0.7 °C 1029.7 hPa South 3.7 km/h 2.4 km/h 95 % 0 mm
07:09 0.2 °C -0.6 °C 1029.7 hPa Calm     95 % 0 mm
07:14 0.2 °C -0.6 °C 1030 hPa Calm     95 % 0 mm
07:19 0.1 °C -0.7 °C 1030 hPa Calm     94 % 0 mm
07:24 0.1 °C -0.8 °C 1030 hPa Calm     94 % 0 mm
07:29 0.1 °C -0.7 °C 1029.7 hPa Calm     95 % 0 mm
07:34 0.1 °C -0.7 °C 1029.7 hPa Calm     95 % 0 mm
07:39 0.1 °C -0.7 °C 1029.7 hPa North 1.9 km/h   95 % 0 mm
07:44 0.1 °C -0.6 °C 1029.7 hPa North 3.7 km/h   95 % 0 mm
07:49 0.1 °C -0.7 °C 1029.7 hPa Calm     95 % 0 mm
07:54 0.2 °C -0.6 °C 1030 hPa Calm     95 % 0 mm
07:59 0.4 °C -0.3 °C 1030 hPa SSE 1.9 km/h   95 % 0 mm
08:04 0.6 °C -0.1 °C 1030 hPa South 1.6 km/h 0.6 km/h 95 % 0 mm
08:09 0.8 °C 0.1 °C 1030 hPa SSE 1.9 km/h   95 % 0 mm
08:14 0.9 °C 0.2 °C 1030 hPa Calm     95 % 0 mm
08:19 1.1 °C 0.6 °C 1030 hPa Calm     96 % 0 mm
08:24 1.2 °C 0.5 °C 1030 hPa Calm     95 % 0 mm
08:29 1.5 °C 0.8 °C 1030.4 hPa Calm   0.2 km/h 95 % 0 mm
08:34 2 °C 1.4 °C 1030.4 hPa Calm     96 % 0 mm
08:39 2.5 °C 1.9 °C 1030.4 hPa Calm     96 % 0 mm
08:44 2.9 °C 2.3 °C 1030.4 hPa Calm     96 % 0 mm
08:49 3.6 °C 3 °C 1030.4 hPa Calm     96 % 0 mm
08:54 3.9 °C 3.3 °C 1030.4 hPa Calm     96 % 0 mm
08:59 4.3 °C 3.7 °C 1030.4 hPa Calm     96 % 0 mm
09:04 4.7 °C 4.1 °C 1030.4 hPa Calm     96 % 0 mm
09:09 5.2 °C 4.7 °C 1030.4 hPa Calm     97 % 0 mm
09:14 5.5 °C 5.1 °C 1030 hPa Calm     97 % 0 mm
09:19 6.1 °C 5.6 °C 1030 hPa Calm     97 % 0 mm
09:24 6.2 °C 5.6 °C 1030.4 hPa Calm     96 % 0 mm
09:29 6.2 °C 5.4 °C 1030.4 hPa Calm     95 % 0 mm
09:34 6.7 °C 6.1 °C 1030.4 hPa Calm     96 % 0 mm
09:39 6.9 °C 6.3 °C 1030 hPa South 1.9 km/h 0.2 km/h 96 % 0 mm
09:44 7.2 °C 6.6 °C 1030 hPa South 5.6 km/h 1.6 km/h 96 % 0 mm
09:49 7.4 °C 6.7 °C 1030 hPa Calm     95 % 0 mm
09:54 7.3 °C 6.4 °C 1030 hPa Calm     94 % 0 mm
09:59 7.3 °C 6.4 °C 1030 hPa Calm     94 % 0 mm
10:04 7.4 °C 6.6 °C 1030 hPa Calm     94 % 0 mm
10:09 7.6 °C 6.7 °C 1030 hPa Calm     94 % 0 mm
10:14 8.3 °C 7.5 °C 1030 hPa Calm     95 % 0 mm
10:19 9 °C 7.9 °C 1030 hPa Calm     93 % 0 mm
10:24 9.6 °C 8.2 °C 1030 hPa Calm     91 % 0 mm
10:29 10.1 °C 8.2 °C 1030 hPa Calm     88 % 0 mm
10:34 10.5 °C 8.1 °C 1030 hPa Calm     85 % 0 mm
10:39 11.1 °C 7.8 °C 1030 hPa Calm     80 % 0 mm
10:44 11.7 °C 7.6 °C 1030 hPa SSW 1.9 km/h 0.2 km/h 76 % 0 mm
10:49 11.6 °C 7.1 °C 1030 hPa South 3.7 km/h 0.3 km/h 74 % 0 mm
10:54 11.7 °C 6.6 °C 1029.7 hPa South 3.7 km/h 2.1 km/h 71 % 0 mm
10:59 11.9 °C 6.4 °C 1029.7 hPa South 3.7 km/h   69 % 0 mm
11:04 12.3 °C 6.8 °C 1029.7 hPa South 1.9 km/h   69 % 0 mm
11:09 12.7 °C 6.5 °C 1029.7 hPa Calm     66 % 0 mm
11:14 12.8 °C 6.1 °C 1029.7 hPa South 1.9 km/h   64 % 0 mm
11:19 13.2 °C 6.5 °C 1029.3 hPa South 3.7 km/h 0.2 km/h 64 % 0 mm
11:24 13.7 °C 5.3 °C 1029.3 hPa Calm     57 % 0 mm
11:29 14.2 °C 4.2 °C 1029.3 hPa Calm     51 % 0 mm
11:34 14.7 °C 5.7 °C 1029.3 hPa South 3.7 km/h 1.8 km/h 55 % 0 mm
11:39 14.8 °C 5.1 °C 1029 hPa South 3.7 km/h 1 km/h 52 % 0 mm
11:44 14.6 °C 6.4 °C 1029 hPa South 5.6 km/h 2.9 km/h 58 % 0 mm
11:49 14.2 °C 5.8 °C 1029 hPa South 3.7 km/h 1.4 km/h 57 % 0 mm
11:54 13.9 °C 5.3 °C 1029 hPa South 3.7 km/h 2.4 km/h 56 % 0 mm
11:59 14 °C 4.8 °C 1029 hPa South 3.7 km/h 1.9 km/h 54 % 0 mm
12:04 14.4 °C 4.1 °C 1029 hPa South 1.9 km/h   50 % 0 mm
12:09 14.7 °C 3.4 °C 1029 hPa South 3.7 km/h 1.1 km/h 47 % 0 mm
12:14 14.9 °C 3.7 °C 1028.7 hPa South 3.7 km/h 1.9 km/h 47 % 0 mm
12:19 14.9 °C 3.7 °C 1028.7 hPa Calm   0.2 km/h 47 % 0 mm
12:24 15.3 °C 4.1 °C 1028.7 hPa South 5.6 km/h 5.1 km/h 47 % 0 mm
12:29 14.9 °C 4 °C 1028.7 hPa South 5.6 km/h 4.8 km/h 48 % 0 mm
12:34 14.6 °C 4.5 °C 1028.7 hPa South 7.4 km/h 6.1 km/h 51 % 0 mm
12:39 14.4 °C 4.4 °C 1028.7 hPa South 7.4 km/h 2.7 km/h 51 % 0 mm
12:44 14.6 °C 4.6 °C 1028.3 hPa South 5.6 km/h 2.6 km/h 51 % 0 mm
12:49 14.9 °C 5.4 °C 1028.3 hPa South 1.9 km/h 0.3 km/h 53 % 0 mm
12:54 15.4 °C 6.1 °C 1028.3 hPa South 3.7 km/h 2.3 km/h 54 % 0 mm
12:59 15.8 °C 5.9 °C 1028.3 hPa SSW 7.4 km/h 0.2 km/h 52 % 0 mm
13:04 15.7 °C 4.7 °C 1028.3 hPa South 5.6 km/h 3.1 km/h 48 % 0 mm
13:09 15.5 °C 4.5 °C 1028 hPa South 3.2 km/h 2.6 km/h 48 % 0 mm
13:14 15.4 °C 4.5 °C 1028 hPa South 5.6 km/h 4.7 km/h 48 % 0 mm
13:19 15.6 °C 4.3 °C 1028 hPa South 5.6 km/h 2.3 km/h 47 % 0 mm
13:24 15.9 °C 4 °C 1028 hPa South 1.9 km/h 0.2 km/h 45 % 0 mm
13:29 15.9 °C 2.7 °C 1028 hPa SSW 5.6 km/h 6 km/h 41 % 0 mm
13:34 15.7 °C 5.3 °C 1028 hPa South 6.4 km/h 5.3 km/h 50 % 0 mm
13:39 15.8 °C 5.9 °C 1027.7 hPa South 11.1 km/h 6.4 km/h 52 % 0 mm
13:44 15.7 °C 5.6 °C 1027.7 hPa SSW 9.7 km/h 8.5 km/h 51 % 0 mm
13:49 15.5 °C 5.1 °C 1028 hPa North 13 km/h 6.3 km/h 50 % 0 mm
13:54 15.2 °C 5.1 °C 1028 hPa South 11.3 km/h 10.6 km/h 51 % 0 mm
13:59 15 °C 4.9 °C 1028 hPa South 9.3 km/h 7.1 km/h 51 % 0 mm
14:04 14.9 °C 5.2 °C 1027.7 hPa South 16.7 km/h 10.5 km/h 52 % 0 mm
14:09 14.8 °C 5.1 °C 1027.7 hPa SSW 18.5 km/h 11.4 km/h 52 % 0 mm
14:14 14.8 °C 5.3 °C 1027.7 hPa SSW 9.7 km/h 6.3 km/h 53 % 0 mm
14:19 14.9 °C 4.6 °C 1027.7 hPa South 9.3 km/h 8.7 km/h 50 % 0 mm
14:24 14.9 °C 4.3 °C 1027.7 hPa South 14.8 km/h 7.9 km/h 49 % 0 mm
14:29 14.9 °C 4.3 °C 1027.7 hPa SSW 16.7 km/h 12.4 km/h 49 % 0 mm
14:34 14.9 °C 3.4 °C 1027.7 hPa South 9.7 km/h 8.5 km/h 46 % 0 mm
14:39 15 °C 2.2 °C 1027.3 hPa South 9.3 km/h 4.7 km/h 42 % 0 mm
14:44 15 °C 3.2 °C 1027.3 hPa South 12.9 km/h 9.3 km/h 45 % 0 mm
14:49 14.9 °C 3.4 °C 1027.7 hPa South 14.8 km/h 10.9 km/h 46 % 0 mm
14:54 14.8 °C 3.6 °C 1027.7 hPa South 14.8 km/h 11.1 km/h 47 % 0 mm
14:59 14.9 °C 3.7 °C 1027.7 hPa South 13 km/h 6.1 km/h 47 % 0 mm
15:04 14.9 °C 3.7 °C 1027.7 hPa South 9.7 km/h 8.5 km/h 47 % 0 mm
15:09 14.9 °C 3.9 °C 1027.3 hPa SSW 11.3 km/h 9.3 km/h 48 % 0 mm
15:14 14.9 °C 4.3 °C 1027.7 hPa SSW 9.7 km/h 6 km/h 49 % 0 mm
15:19 14.9 °C 4.3 °C 1027.3 hPa North 13 km/h 11.4 km/h 49 % 0 mm
15:24 14.8 °C 4.5 °C 1027.3 hPa South 9.7 km/h 7.4 km/h 50 % 0 mm
15:29 14.8 °C 4.2 °C 1027.3 hPa South 13 km/h 7.7 km/h 49 % 0 mm
15:34 14.7 °C 3.5 °C 1027.3 hPa South 11.1 km/h 5.6 km/h 47 % 0 mm
15:39 14.8 °C 3.9 °C 1027.3 hPa South 9.3 km/h 6.4 km/h 48 % 0 mm
15:44 14.8 °C 3.6 °C 1027.3 hPa North 6.4 km/h 4 km/h 47 % 0 mm
15:49 14.8 °C 3.3 °C 1027.3 hPa North 7.4 km/h 4.5 km/h 46 % 0 mm
15:54 14.8 °C 3.3 °C 1027.7 hPa South 5.6 km/h 3.1 km/h 46 % 0 mm
15:59 14.8 °C 3.3 °C 1027.3 hPa South 7.4 km/h 2.7 km/h 46 % 0 mm
16:04 14.7 °C 3.5 °C 1027.3 hPa South 5.6 km/h 2.3 km/h 47 % 0 mm
16:09 14.7 °C 3.2 °C 1027.3 hPa South 9.3 km/h 6 km/h 46 % 0 mm
16:14 14.6 °C 3.7 °C 1027.3 hPa South 5.6 km/h 2.9 km/h 48 % 0 mm
16:19 14.5 °C 3.9 °C 1027.3 hPa South 5.6 km/h 2.9 km/h 49 % 0 mm
16:24 14.3 °C 4.1 °C 1027.3 hPa South 9.3 km/h 3.9 km/h 50 % 0 mm
16:29 14.2 °C 4.4 °C 1027.3 hPa South 7.4 km/h 2.9 km/h 52 % 0 mm
16:34 14 °C 4.6 °C 1027.3 hPa South 5.6 km/h 3.4 km/h 53 % 0 mm
16:39 13.9 °C 5 °C 1027.7 hPa South 5.6 km/h 3.2 km/h 55 % 0 mm
16:44 13.8 °C 5.2 °C 1027.3 hPa South 5.6 km/h 5.5 km/h 56 % 0 mm
16:49 13.6 °C 5.5 °C 1027.3 hPa South 5.6 km/h 3.2 km/h 58 % 0 mm
16:54 13.4 °C 5.6 °C 1027.3 hPa South 3.7 km/h 1.9 km/h 59 % 0 mm
16:59 13.3 °C 5.4 °C 1027.3 hPa South 3.2 km/h 1.6 km/h 59 % 0 mm
17:04 13 °C 5.4 °C 1027.7 hPa South 3.7 km/h 3.4 km/h 60 % 0 mm
17:09 12.7 °C 5.4 °C 1027.7 hPa South 3.7 km/h 2.3 km/h 61 % 0 mm
17:14 12.4 °C 5.3 °C 1027.7 hPa South 5.6 km/h 3.1 km/h 62 % 0 mm
17:19 12.2 °C 5.3 °C 1027.7 hPa South 3.7 km/h 2.9 km/h 63 % 0 mm
17:24 11.9 °C 5.3 °C 1027.7 hPa South 3.7 km/h 0.8 km/h 64 % 0 mm
17:29 11.6 °C 5.2 °C 1027.7 hPa Calm     65 % 0 mm
17:34 11.3 °C 5.2 °C 1027.7 hPa Calm     66 % 0 mm
17:39 11 °C 5.1 °C 1027.7 hPa Calm     67 % 0 mm
17:44 10.7 °C 5.1 °C 1027.7 hPa Calm     68 % 0 mm
17:49 10.3 °C 4.9 °C 1027.7 hPa Calm     69 % 0 mm
17:54 9.9 °C 4.9 °C 1027.7 hPa Calm     71 % 0 mm
17:59 9.7 °C 4.9 °C 1027.7 hPa Calm     72 % 0 mm
18:04 9.4 °C 4.8 °C 1027.7 hPa Calm     73 % 0 mm
18:09 9.3 °C 4.7 °C 1027.7 hPa Calm     73 % 0 mm
18:14 9.2 °C 4.8 °C 1027.7 hPa South 3.7 km/h 3.5 km/h 74 % 0 mm
18:19 9.2 °C 4.8 °C 1027.7 hPa South 5.6 km/h 2.4 km/h 74 % 0 mm
18:24 9.1 °C 4.7 °C 1027.7 hPa South 5.6 km/h 2.9 km/h 74 % 0 mm
18:29 9 °C 4.6 °C 1027.7 hPa South 5.6 km/h 3.7 km/h 74 % 0 mm
18:34 8.9 °C 4.7 °C 1027.7 hPa South 5.6 km/h 3.7 km/h 75 % 0 mm
18:39 8.9 °C 4.7 °C 1027.7 hPa South 5.6 km/h 3.1 km/h 75 % 0 mm
18:44 8.9 °C 4.7 °C 1027.7 hPa South 5.6 km/h 2.9 km/h 75 % 0 mm
18:49 8.9 °C 4.7 °C 1027.7 hPa South 5.6 km/h 2.1 km/h 75 % 0 mm
18:54 8.9 °C 4.7 °C 1027.7 hPa North 3.7 km/h 1.9 km/h 75 % 0 mm
18:59 8.8 °C 4.4 °C 1028 hPa South 1.6 km/h 1 km/h 74 % 0 mm
19:04 8.8 °C 4.6 °C 1027.7 hPa South 3.7 km/h 0.2 km/h 75 % 0 mm
19:09 8.7 °C 4.3 °C 1028 hPa Calm   0.3 km/h 74 % 0 mm
19:14 8.6 °C 4.2 °C 1028 hPa South 1.9 km/h   74 % 0 mm
19:19 8.4 °C 4 °C 1028 hPa Calm     74 % 0 mm
19:24 8.2 °C 4 °C 1028 hPa South 3.2 km/h 1.3 km/h 75 % 0 mm
19:29 8.1 °C 3.9 °C 1027.7 hPa South 3.7 km/h 3.2 km/h 75 % 0 mm
19:34 7.9 °C 3.9 °C 1027.7 hPa South 3.7 km/h 2.9 km/h 76 % 0 mm
19:39 7.8 °C 3.9 °C 1027.7 hPa North 3.7 km/h 1.6 km/h 76 % 0 mm
19:44 7.7 °C 3.8 °C 1027.7 hPa South 3.7 km/h 2.1 km/h 76 % 0 mm
19:49 7.6 °C 3.8 °C 1027.7 hPa South 1.6 km/h   77 % 0 mm
19:54 7.5 °C 3.7 °C 1027.7 hPa Calm     77 % 0 mm
19:59 7.3 °C 3.6 °C 1028 hPa South 3.7 km/h 2.7 km/h 77 % 0 mm
20:04 7.3 °C 3.7 °C 1028 hPa South 5.6 km/h 1.6 km/h 78 % 0 mm
20:09 7.4 °C 3.6 °C 1027.7 hPa South 5.6 km/h 3.4 km/h 77 % 0 mm
20:14 7.4 °C 3.4 °C 1028 hPa South 3.7 km/h 2.9 km/h 76 % 0 mm
20:19 7.4 °C 3.4 °C 1028 hPa South 3.7 km/h 2.9 km/h 76 % 0 mm
20:24 7.3 °C 3.4 °C 1028 hPa South 3.7 km/h 1.3 km/h 76 % 0 mm
20:29 7.2 °C 3.3 °C 1028 hPa South 3.7 km/h 1.8 km/h 76 % 0 mm
20:34 7.1 °C 3.2 °C 1028 hPa Calm     76 % 0 mm
20:39 7.1 °C 3.2 °C 1028 hPa Calm     76 % 0 mm
20:44 7.1 °C 2.9 °C 1028 hPa Calm     75 % 0 mm
20:49 7 °C 2.9 °C 1028 hPa Calm     75 % 0 mm
20:54 7 °C 2.9 °C 1028 hPa Calm     75 % 0 mm
20:59 7.2 °C 2.8 °C 1027.7 hPa Calm     74 % 0 mm
21:04 7.3 °C 3 °C 1027.7 hPa Calm     74 % 0 mm
21:09 7.2 °C 2.7 °C 1027.7 hPa Calm     73 % 0 mm
21:14 7.1 °C 2.6 °C 1027.7 hPa Calm     73 % 0 mm
21:19 6.9 °C 2.6 °C 1027.7 hPa Calm     74 % 0 mm
21:24 6.7 °C 2.3 °C 1027.7 hPa Calm     74 % 0 mm
21:29 6.5 °C 2.2 °C 1027.7 hPa Calm     74 % 0 mm
21:34 6.3 °C 2.2 °C 1027.7 hPa Calm     75 % 0 mm
21:39 6 °C 2.1 °C 1027.7 hPa Calm     76 % 0 mm
21:44 5.9 °C 2.2 °C 1027.7 hPa Calm     77 % 0 mm
21:49 5.7 °C 2.2 °C 1027.7 hPa Calm     78 % 0 mm
21:54 5.4 °C 1.9 °C 1027.7 hPa Calm     78 % 0 mm
21:59 5.2 °C 1.7 °C 1027.7 hPa Calm     78 % 0 mm
22:04 5.1 °C 1.7 °C 1027.7 hPa Calm     79 % 0 mm
22:09 4.9 °C 1.9 °C 1027.7 hPa Calm     81 % 0 mm
22:14 4.8 °C 2.1 °C 1027.7 hPa Calm     83 % 0 mm
22:19 4.8 °C 2.1 °C 1027.7 hPa Calm     83 % 0 mm
22:24 4.7 °C 2 °C 1027.7 hPa Calm     83 % 0 mm
22:29 4.6 °C 1.9 °C 1027.7 hPa Calm     83 % 0 mm
22:34 4.6 °C 2.1 °C 1027.7 hPa Calm     84 % 0 mm
22:39 4.5 °C 2.2 °C 1027.7 hPa Calm     85 % 0 mm
22:44 4.6 °C 2.4 °C 1027.7 hPa Calm     86 % 0 mm
22:49 4.6 °C 2.4 °C 1027.7 hPa Calm     86 % 0 mm
22:54 4.6 °C 2.4 °C 1027.7 hPa Calm     86 % 0 mm
22:59 4.7 °C 2.5 °C 1027.7 hPa Calm     86 % 0 mm
23:04 4.7 °C 2.6 °C 1027.7 hPa South 3.7 km/h 2.3 km/h 86 % 0 mm
23:09 4.7 °C 2.6 °C 1027.7 hPa South 3.7 km/h 1.6 km/h 86 % 0 mm
23:14 4.7 °C 2.6 °C 1027.7 hPa Calm     86 % 0 mm
23:19 4.7 °C 2.5 °C 1027.7 hPa Calm     86 % 0 mm
23:24 4.5 °C 2.3 °C 1027.7 hPa Calm     86 % 0 mm
23:29 4.3 °C 2.1 °C 1027.3 hPa Calm     85 % 0 mm
23:34 4.2 °C 2.1 °C 1027.3 hPa Calm     86 % 0 mm
23:39 4 °C 1.9 °C 1027.3 hPa Calm     86 % 0 mm
23:44 3.9 °C 1.8 °C 1027.3 hPa Calm     86 % 0 mm
23:49 3.7 °C 1.7 °C 1027.3 hPa Calm     87 % 0 mm
23:54 3.4 °C 1.5 °C 1027.3 hPa Calm     87 % 0 mm
23:59 3.3 °C 1.3 °C 1027.3 hPa Calm     87 % 0 mm
Ararat Weather
Compliments of Weather Underground - 2.25 mb
Click here to send mail.


ABOUT

Live weather data from Ararat, Victoria, Australia, 3377
Data uploaded from Cumulus every 5 minutes to Weather Underground.
This site then downloads the raw data for formatting and display.
Metric and imperial data can be displayed. Graphs and historical data available.
Includes Sun and Moon times and rain image live from BOM.

Check out Ararat Weather on Facebook, Twitter and Google +

Help support ongoing costs by checking out the ads





Follow @AraratWeather